Time;durP1;ratioP1;P1;durP2;ratioP2;P2;SDS_P1;SDS_P2;PMS_P1;PMS_P2;Temp;Humidity;BMP_temperature;BMP_pressure;BME280_temperature;BME280_humidity;BME280_pressure;Samples;Min_cycle;Max_cycle;Signal;HPM_P1;HPM_P2
2021/12/18 00:02:04;;;;;;;25.58;13.93;;;3.80;99.90;;;;;;5028630;28;20039;-72
2021/12/18 00:05:09;;;;;;;31.15;15.63;;;3.60;99.90;;;;;;5027746;28;20040;-72
2021/12/18 00:08:13;;;;;;;32.03;15.95;;;3.70;99.90;;;;;;5023938;28;20385;-72
2021/12/18 00:11:17;;;;;;;23.80;13.75;;;3.70;99.90;;;;;;5029654;28;20048;-72
2021/12/18 00:14:21;;;;;;;22.42;13.95;;;3.70;99.90;;;;;;5029078;28;20358;-72
2021/12/18 00:17:25;;;;;;;28.33;15.15;;;3.70;99.90;;;;;;5022552;28;20036;-72
2021/12/18 00:20:30;;;;;;;26.17;15.02;;;3.70;99.90;;;;;;5027578;28;20400;-72
2021/12/18 00:23:34;;;;;;;26.52;13.65;;;3.60;99.90;;;;;;5025625;28;20048;-72
2021/12/18 00:26:37;;;;;;;28.17;14.00;;;3.50;99.90;;;;;;5024094;28;20044;-72
2021/12/18 00:29:41;;;;;;;14.38;7.97;;;3.40;99.90;;;;;;5030449;28;20495;-72
2021/12/18 00:32:45;;;;;;;21.05;10.73;;;3.50;99.90;;;;;;5029706;28;20393;-72
2021/12/18 00:35:49;;;;;;;21.98;10.68;;;3.50;99.90;;;;;;5031983;28;20060;-71
2021/12/18 00:38:53;;;;;;;25.25;14.10;;;3.50;99.90;;;;;;5031573;28;20068;-72
2021/12/18 00:45:11;;;;;;;31.00;15.75;;;3.40;99.90;;;;;;5030802;28;20064;-72
2021/12/18 00:48:16;;;;;;;29.33;15.68;;;3.30;99.90;;;;;;5030748;28;20060;-71
2021/12/18 00:51:22;;;;;;;27.33;14.07;;;3.30;99.90;;;;;;5030100;28;20067;-72
2021/12/18 00:54:27;;;;;;;25.05;12.75;;;3.30;99.90;;;;;;5031907;28;20045;-72
2021/12/18 00:57:31;;;;;;;22.63;11.68;;;3.30;99.90;;;;;;5026822;28;20496;-72
2021/12/18 01:00:38;;;;;;;31.27;17.45;;;3.30;99.90;;;;;;5028223;28;20044;-72
2021/12/18 01:03:43;;;;;;;33.65;16.83;;;3.30;99.90;;;;;;5031740;28;20056;-72
2021/12/18 01:06:47;;;;;;;35.00;17.35;;;3.30;99.90;;;;;;5031335;28;20049;-71
2021/12/18 01:12:58;;;;;;;46.67;24.13;;;3.20;99.90;;;;;;5031739;28;20072;-72
2021/12/18 01:16:16;;;;;;;35.38;18.42;;;3.10;99.90;;;;;;5029779;28;20491;-72
2021/12/18 01:22:50;;;;;;;42.72;22.30;;;2.90;99.90;;;;;;5028481;28;20044;-72
2021/12/18 01:25:55;;;;;;;43.08;21.90;;;2.90;99.90;;;;;;5031574;28;20053;-72
2021/12/18 01:29:00;;;;;;;41.45;22.77;;;2.80;99.90;;;;;;5029615;28;20507;-72
2021/12/18 01:32:05;;;;;;;46.83;22.58;;;2.80;99.90;;;;;;5032175;28;20380;-71
2021/12/18 01:35:09;;;;;;;37.90;21.15;;;2.80;99.90;;;;;;5029007;28;20401;-72
2021/12/18 01:38:13;;;;;;;39.70;20.90;;;2.80;99.90;;;;;;5030709;28;20391;-72
2021/12/18 01:41:19;;;;;;;28.17;15.70;;;2.80;99.90;;;;;;5030739;28;20036;-72
2021/12/18 01:54:19;;;;;;;23.77;13.07;;;2.90;99.90;;;;;;5024566;28;20040;-72
2021/12/18 01:57:24;;;;;;;25.60;15.45;;;3.00;99.90;;;;;;5029798;28;20049;-72
2021/12/18 02:00:43;;;;;;;27.52;13.98;;;3.10;99.90;;;;;;5024772;28;20044;-72
2021/12/18 02:03:48;;;;;;;42.13;19.65;;;3.10;99.90;;;;;;5027838;28;20056;-72
2021/12/18 02:06:51;;;;;;;37.20;21.48;;;2.60;99.90;;;;;;5030985;28;20060;-72
2021/12/18 02:10:08;;;;;;;32.53;19.38;;;2.60;99.90;;;;;;5028211;28;20072;-72
2021/12/18 02:23:27;;;;;;;32.70;17.00;;;2.40;99.90;;;;;;5026129;28;20048;-72
2021/12/18 02:26:32;;;;;;;31.63;17.55;;;2.50;99.90;;;;;;5028639;28;20057;-72
2021/12/18 02:29:39;;;;;;;35.55;19.75;;;2.60;99.90;;;;;;5025747;28;20052;-72
2021/12/18 02:32:43;;;;;;;37.80;20.08;;;2.50;99.90;;;;;;5028691;28;20056;-72
2021/12/18 02:35:50;;;;;;;36.50;18.15;;;2.50;99.90;;;;;;5026540;28;20523;-73
2021/12/18 02:42:11;;;;;;;34.50;19.90;;;2.60;99.90;;;;;;5029371;28;20045;-72
2021/12/18 02:45:15;;;;;;;33.88;19.05;;;2.60;99.90;;;;;;5029498;28;20048;-72
2021/12/18 02:48:19;;;;;;;35.85;18.85;;;2.60;99.90;;;;;;5029895;28;20048;-72
2021/12/18 02:51:24;;;;;;;35.90;19.35;;;2.50;99.90;;;;;;5030583;28;20080;-72
2021/12/18 02:54:28;;;;;;;37.28;20.58;;;2.50;99.90;;;;;;5028829;28;20052;-72
2021/12/18 02:57:33;;;;;;;39.55;21.55;;;2.40;99.90;;;;;;5025206;28;20052;-72
2021/12/18 03:00:37;;;;;;;36.13;21.13;;;2.30;99.90;;;;;;5030077;28;20045;-72
2021/12/18 03:03:42;;;;;;;40.83;21.42;;;2.20;99.90;;;;;;5025843;28;20399;-72
2021/12/18 03:06:51;;;;;;;44.55;24.88;;;2.20;99.90;;;;;;5026710;28;20518;-72
2021/12/18 03:26:33;;;;;;;40.55;21.35;;;2.10;99.90;;;;;;5028656;28;20052;-72
2021/12/18 03:29:37;;;;;;;38.75;21.88;;;2.10;99.90;;;;;;5024257;28;20048;-72
2021/12/18 03:32:42;;;;;;;38.88;21.92;;;2.10;99.90;;;;;;5026030;28;20446;-72
2021/12/18 03:35:46;;;;;;;35.65;20.33;;;2.10;99.90;;;;;;5028932;28;20053;-72
2021/12/18 03:38:51;;;;;;;37.15;21.45;;;2.00;99.90;;;;;;5026008;28;20048;-72
2021/12/18 03:41:55;;;;;;;34.28;21.92;;;2.00;99.90;;;;;;5029535;28;20056;-72
2021/12/18 03:45:00;;;;;;;38.83;20.77;;;1.90;99.90;;;;;;5028810;28;20384;-72
2021/12/18 03:48:04;;;;;;;45.03;25.63;;;1.80;99.90;;;;;;5028215;28;20049;-72
2021/12/18 03:51:08;;;;;;;46.25;26.60;;;1.80;99.90;;;;;;5029085;28;20040;-72
2021/12/18 03:54:12;;;;;;;44.25;23.70;;;1.70;99.90;;;;;;5029289;28;20501;-72
2021/12/18 03:57:16;;;;;;;40.80;23.60;;;1.70;99.90;;;;;;5027627;28;20044;-72
2021/12/18 04:00:20;;;;;;;34.08;20.75;;;1.70;99.90;;;;;;5025186;28;20043;-72
2021/12/18 04:03:24;;;;;;;34.22;20.25;;;1.70;99.90;;;;;;5023566;28;20040;-72
2021/12/18 04:06:28;;;;;;;36.30;20.17;;;1.50;99.90;;;;;;5028834;28;20045;-72
2021/12/18 04:09:32;;;;;;;37.20;21.40;;;1.50;99.90;;;;;;5027443;28;20392;-72
2021/12/18 04:12:36;;;;;;;40.67;24.00;;;1.60;99.90;;;;;;5032857;28;20040;-72
2021/12/18 04:15:40;;;;;;;40.70;23.65;;;1.60;99.90;;;;;;5030281;28;20056;-72
2021/12/18 04:18:44;;;;;;;43.10;23.98;;;1.70;99.90;;;;;;5028586;28;20843;-72
2021/12/18 04:21:48;;;;;;;44.15;23.70;;;1.70;99.90;;;;;;5030549;28;20329;-72
2021/12/18 04:24:53;;;;;;;43.00;23.42;;;1.70;99.90;;;;;;5032076;28;20060;-73
2021/12/18 04:27:56;;;;;;;42.25;24.52;;;1.70;99.90;;;;;;5031997;28;20052;-72
2021/12/18 04:31:00;;;;;;;46.20;23.63;;;1.60;99.90;;;;;;5032954;28;20072;-73
2021/12/18 04:34:05;;;;;;;43.05;23.70;;;1.60;99.90;;;;;;5031876;28;20041;-73
2021/12/18 04:37:09;;;;;;;39.20;22.17;;;1.60;99.90;;;;;;5031981;28;20045;-72
2021/12/18 04:40:13;;;;;;;40.38;23.23;;;1.60;99.90;;;;;;5030149;28;20037;-72
2021/12/18 04:43:17;;;;;;;44.25;23.73;;;1.50;99.90;;;;;;5032426;28;20032;-72
2021/12/18 04:46:21;;;;;;;37.83;22.42;;;1.40;99.90;;;;;;5031622;28;20025;-72
2021/12/18 04:49:25;;;;;;;32.55;19.27;;;1.40;99.90;;;;;;5036776;28;20048;-72
2021/12/18 04:52:29;;;;;;;33.83;19.63;;;1.30;99.90;;;;;;5027116;28;20361;-72
2021/12/18 04:55:34;;;;;;;37.13;18.92;;;1.20;99.90;;;;;;5030284;28;20060;-72
2021/12/18 04:58:38;;;;;;;35.50;19.02;;;1.20;99.90;;;;;;5028073;28;20503;-72
2021/12/18 05:01:42;;;;;;;30.77;18.17;;;1.20;99.90;;;;;;5032238;28;20040;-72
2021/12/18 05:04:47;;;;;;;26.33;14.38;;;1.20;99.90;;;;;;5028616;28;20507;-72
2021/12/18 05:07:51;;;;;;;29.25;15.65;;;1.20;99.90;;;;;;5028863;28;20048;-72
2021/12/18 05:10:55;;;;;;;25.30;14.07;;;1.10;99.90;;;;;;5032005;28;20049;-73
2021/12/18 05:13:59;;;;;;;32.65;15.82;;;1.00;99.90;;;;;;5031050;28;20523;-72
2021/12/18 05:17:03;;;;;;;25.75;14.73;;;1.00;99.90;;;;;;5029780;28;20120;-73
2021/12/18 05:20:08;;;;;;;21.20;12.82;;;1.00;99.90;;;;;;5031718;28;20299;-73
2021/12/18 05:23:11;;;;;;;25.20;13.38;;;1.10;99.90;;;;;;5028462;28;20052;-73
2021/12/18 05:26:16;;;;;;;25.52;13.90;;;1.10;99.90;;;;;;5027056;28;20033;-72
2021/12/18 05:29:20;;;;;;;26.90;14.45;;;1.10;99.90;;;;;;5031579;28;20492;-72
2021/12/18 05:32:24;;;;;;;24.20;11.60;;;1.10;99.90;;;;;;5030241;28;20483;-72
2021/12/18 05:35:30;;;;;;;23.10;10.80;;;1.20;99.90;;;;;;5025514;28;20511;-72
2021/12/18 05:38:34;;;;;;;17.88;8.85;;;1.40;99.90;;;;;;5030592;28;20040;-72
2021/12/18 05:41:39;;;;;;;18.05;9.57;;;1.70;99.90;;;;;;5028271;28;20049;-72
2021/12/18 05:44:44;;;;;;;17.80;9.05;;;2.00;99.90;;;;;;5030810;28;20044;-72
2021/12/18 05:47:48;;;;;;;14.00;8.07;;;2.10;99.90;;;;;;5028203;28;20056;-72
2021/12/18 05:50:52;;;;;;;11.38;6.20;;;2.20;99.90;;;;;;5029779;28;20053;-72
2021/12/18 05:53:56;;;;;;;11.27;6.30;;;2.20;99.90;;;;;;5030767;28;20044;-72
2021/12/18 05:56:59;;;;;;;11.40;5.25;;;2.10;99.90;;;;;;5030311;28;20064;-72
2021/12/18 06:00:06;;;;;;;9.27;5.10;;;2.10;99.90;;;;;;5030263;28;20041;-72
2021/12/18 06:03:12;;;;;;;13.48;7.45;;;2.10;99.90;;;;;;5028705;28;20032;-73
2021/12/18 06:06:15;;;;;;;12.30;7.75;;;1.90;99.90;;;;;;5023150;28;20032;-72
2021/12/18 06:09:20;;;;;;;14.55;7.93;;;1.70;99.90;;;;;;5028242;28;20053;-72
2021/12/18 06:12:24;;;;;;;14.55;7.82;;;1.50;99.90;;;;;;5030321;28;20044;-72
2021/12/18 06:15:28;;;;;;;13.15;7.57;;;1.40;99.90;;;;;;5030168;28;20488;-72
2021/12/18 06:18:40;;;;;;;15.05;7.72;;;1.30;99.90;;;;;;5025681;28;20040;-72
2021/12/18 06:21:44;;;;;;;13.75;6.90;;;1.30;99.90;;;;;;5029723;28;20033;-73
2021/12/18 06:24:48;;;;;;;9.40;6.07;;;1.30;99.90;;;;;;5029634;28;20060;-72
2021/12/18 06:27:52;;;;;;;12.32;6.15;;;1.30;99.90;;;;;;5030229;28;20507;-72
2021/12/18 06:30:56;;;;;;;18.23;8.63;;;1.20;99.90;;;;;;5030756;28;20068;-72
2021/12/18 06:34:01;;;;;;;13.82;5.47;;;1.20;99.90;;;;;;5029006;28;20053;-73
2021/12/18 06:37:05;;;;;;;13.90;6.32;;;1.40;99.90;;;;;;5029999;28;20502;-72
2021/12/18 06:40:10;;;;;;;10.45;4.40;;;1.60;99.90;;;;;;5028923;28;20040;-72
2021/12/18 06:43:15;;;;;;;9.02;4.55;;;1.60;99.90;;;;;;5025779;28;20384;-72
2021/12/18 06:46:19;;;;;;;8.80;4.20;;;1.70;99.90;;;;;;5023819;28;20489;-73
2021/12/18 06:49:23;;;;;;;13.93;5.97;;;1.80;99.90;;;;;;5030632;28;20045;-72
2021/12/18 06:52:28;;;;;;;28.45;10.73;;;1.90;99.90;;;;;;5028246;28;20036;-73
2021/12/18 06:55:32;;;;;;;26.90;13.75;;;1.90;99.90;;;;;;5029194;28;20036;-72
2021/12/18 06:58:37;;;;;;;13.23;7.55;;;2.10;99.90;;;;;;5025965;28;20609;-73
2021/12/18 07:01:41;;;;;;;16.20;7.75;;;2.30;99.90;;;;;;5029847;28;20043;-72
2021/12/18 07:04:44;;;;;;;18.98;8.90;;;2.40;99.90;;;;;;5026258;28;20036;-72
2021/12/18 07:07:50;;;;;;;18.50;9.23;;;2.60;99.90;;;;;;5027408;28;20045;-72
2021/12/18 07:10:54;;;;;;;20.90;10.30;;;2.70;99.90;;;;;;5029438;28;20396;-72
2021/12/18 07:13:58;;;;;;;26.15;10.95;;;2.70;99.90;;;;;;5029385;28;20060;-72
2021/12/18 07:17:03;;;;;;;25.85;12.48;;;4.10;99.90;;;;;;5028701;28;20044;-72
2021/12/18 07:20:08;;;;;;;23.23;10.85;;;7.00;99.90;;;;;;5029591;28;20487;-73
2021/12/18 07:23:12;;;;;;;12.75;7.28;;;9.90;99.90;;;;;;5029174;28;20045;-73
2021/12/18 07:26:16;;;;;;;13.93;6.88;;;12.10;99.90;;;;;;5026176;28;20479;-71
2021/12/18 07:29:22;;;;;;;12.68;6.88;;;13.90;98.80;;;;;;5029774;28;20044;-71
2021/12/18 07:32:27;;;;;;;8.82;4.97;;;15.50;95.10;;;;;;5028821;28;20044;-72
2021/12/18 07:35:30;;;;;;;7.63;4.35;;;17.10;91.40;;;;;;5024258;28;20251;-72
2021/12/18 07:38:35;;;;;;;5.32;3.50;;;18.70;88.20;;;;;;5028303;28;20416;-73
2021/12/18 07:41:39;;;;;;;16.20;9.93;;;19.70;82.20;;;;;;5028676;28;20048;-70
2021/12/18 07:44:45;;;;;;;14.98;9.00;;;19.60;80.20;;;;;;5024884;28;20068;-72
2021/12/18 07:47:49;;;;;;;11.57;6.82;;;19.80;80.90;;;;;;5029338;28;20132;-72
2021/12/18 07:50:54;;;;;;;21.58;11.48;;;20.80;78.70;;;;;;5028671;28;20044;-72
2021/12/18 07:53:59;;;;;;;19.08;12.45;;;20.80;72.30;;;;;;5027536;28;20049;-72
2021/12/18 07:57:03;;;;;;;28.35;15.63;;;20.70;74.60;;;;;;5028796;28;20424;-72
2021/12/18 08:00:11;;;;;;;24.42;14.77;;;21.20;72.70;;;;;;5026568;28;20064;-73
2021/12/18 08:03:15;;;;;;;18.98;12.35;;;22.20;70.10;;;;;;5027900;28;20056;-70
2021/12/18 08:06:20;;;;;;;10.88;7.35;;;22.40;70.20;;;;;;5030150;28;20045;-71
2021/12/18 08:09:25;;;;;;;10.00;4.60;;;23.70;68.00;;;;;;5028831;28;20045;-72
2021/12/18 08:12:29;;;;;;;5.75;3.45;;;24.10;65.60;;;;;;5026802;28;20167;-72
2021/12/18 08:15:33;;;;;;;5.40;3.70;;;25.20;64.20;;;;;;5028113;28;20044;-72
2021/12/18 08:18:37;;;;;;;4.28;3.05;;;26.10;63.00;;;;;;5028255;28;20040;-72
2021/12/18 08:21:41;;;;;;;4.28;2.95;;;27.20;61.50;;;;;;5025246;28;20044;-72
2021/12/18 08:24:45;;;;;;;4.50;2.90;;;28.20;60.50;;;;;;5026363;28;20407;-72
2021/12/18 08:27:49;;;;;;;4.15;2.55;;;29.00;58.40;;;;;;5028571;28;20057;-70
2021/12/18 08:30:53;;;;;;;3.90;2.28;;;30.00;57.40;;;;;;5027593;28;20045;-72
2021/12/18 08:33:57;;;;;;;4.05;2.22;;;30.60;56.50;;;;;;5027601;28;20041;-72
2021/12/18 08:37:02;;;;;;;3.65;2.25;;;30.70;54.40;;;;;;5027822;28;20052;-71
2021/12/18 08:40:07;;;;;;;3.92;2.22;;;30.50;53.70;;;;;;5027460;28;20487;-71
2021/12/18 08:43:11;;;;;;;2.83;2.40;;;31.00;54.50;;;;;;5027567;28;20044;-71
2021/12/18 08:46:16;;;;;;;4.05;2.47;;;31.30;53.50;;;;;;5022927;28;20574;-72
2021/12/18 08:49:21;;;;;;;3.03;2.20;;;30.80;52.70;;;;;;5025216;28;20088;-72
2021/12/18 08:52:25;;;;;;;3.88;2.60;;;31.20;52.70;;;;;;5032056;28;20053;-71
2021/12/18 08:55:29;;;;;;;3.22;2.67;;;32.10;52.50;;;;;;5033240;28;20044;-72
2021/12/18 08:58:33;;;;;;;4.85;4.05;;;32.60;51.30;;;;;;5031102;28;20044;-71
2021/12/18 09:01:37;;;;;;;6.40;4.78;;;32.60;51.00;;;;;;5028544;28;20048;-72
2021/12/18 09:04:41;;;;;;;10.30;6.80;;;33.10;50.80;;;;;;5031647;28;20044;-72
2021/12/18 09:07:45;;;;;;;6.25;4.55;;;32.90;51.40;;;;;;5029744;28;20507;-72
2021/12/18 09:10:50;;;;;;;7.50;5.68;;;32.50;50.40;;;;;;5030436;28;20065;-71
2021/12/18 09:13:55;;;;;;;9.23;5.53;;;32.70;50.10;;;;;;5028854;28;20376;-71
2021/12/18 09:16:59;;;;;;;5.63;4.35;;;32.50;48.00;;;;;;5030062;28;20056;-71
2021/12/18 09:20:04;;;;;;;4.40;3.22;;;30.30;49.40;;;;;;5029842;28;20519;-71
2021/12/18 09:23:08;;;;;;;5.18;4.28;;;27.70;52.10;;;;;;5031733;28;20044;-71
2021/12/18 09:26:12;;;;;;;6.43;4.60;;;29.00;52.40;;;;;;5029823;28;20503;-71
2021/12/18 09:29:16;;;;;;;6.80;4.50;;;28.30;51.70;;;;;;5028121;28;20052;-71
2021/12/18 09:32:20;;;;;;;9.82;6.45;;;29.40;52.50;;;;;;5030468;28;20032;-71
2021/12/18 09:35:24;;;;;;;9.45;7.88;;;26.30;53.10;;;;;;5026117;28;20044;-71
2021/12/18 09:38:28;;;;;;;9.50;8.00;;;27.70;54.90;;;;;;5030363;28;20046;-71
2021/12/18 09:41:33;;;;;;;9.82;5.45;;;29.10;54.30;;;;;;5031035;28;20044;-71
2021/12/18 09:44:37;;;;;;;7.82;5.60;;;30.40;51.80;;;;;;5027742;28;20392;-71
2021/12/18 09:47:43;;;;;;;6.80;5.30;;;31.30;51.60;;;;;;5028893;28;20507;-71
2021/12/18 09:50:55;;;;;;;11.50;6.95;;;31.00;50.90;;;;;;5027636;28;20040;-71
2021/12/18 09:53:59;;;;;;;5.50;4.85;;;30.70;51.50;;;;;;5030092;28;20044;-70
2021/12/18 09:57:04;;;;;;;5.25;4.40;;;30.70;50.00;;;;;;5030472;28;20041;-72
2021/12/18 10:00:12;;;;;;;8.25;4.47;;;29.90;51.40;;;;;;5024897;28;20040;-71
2021/12/18 10:03:16;;;;;;;6.00;3.05;;;29.10;51.10;;;;;;5023470;28;20037;-71
2021/12/18 10:06:41;;;;;;;3.95;3.05;;;29.50;50.50;;;;;;5031165;28;20053;-71
2021/12/18 10:09:46;;;;;;;4.65;3.00;;;29.80;50.30;;;;;;5029767;28;20064;-72
2021/12/18 10:13:02;;;;;;;3.65;3.00;;;30.30;50.30;;;;;;5027987;28;20409;-71
2021/12/18 10:16:11;;;;;;;6.20;4.60;;;31.50;50.10;;;;;;5030840;28;20036;-72
2021/12/18 10:19:35;;;;;;;5.13;4.05;;;31.30;49.20;;;;;;5030180;28;20044;-72
2021/12/18 10:22:52;;;;;;;4.78;3.63;;;31.10;49.50;;;;;;5029980;28;20400;-72
2021/12/18 10:25:56;;;;;;;5.53;4.13;;;31.80;50.40;;;;;;5030248;28;20048;-72
2021/12/18 10:29:00;;;;;;;3.30;2.28;;;32.30;50.50;;;;;;5029557;28;20519;-72
2021/12/18 10:32:10;;;;;;;3.35;2.97;;;32.60;48.30;;;;;;5029977;28;20041;-72
2021/12/18 10:35:15;;;;;;;6.13;5.13;;;31.80;48.10;;;;;;5023113;28;20593;-71
2021/12/18 10:38:42;;;;;;;7.47;5.18;;;29.80;49.30;;;;;;5028143;28;20412;-71
2021/12/18 10:41:46;;;;;;;5.78;4.65;;;30.10;51.20;;;;;;5030728;28;20053;-72
2021/12/18 10:45:02;;;;;;;6.60;5.00;;;27.20;50.50;;;;;;5028984;28;20499;-72
2021/12/18 10:48:15;;;;;;;5.53;3.75;;;26.60;53.40;;;;;;5029400;28;20495;-71
2021/12/18 10:51:23;;;;;;;6.40;4.35;;;28.30;51.30;;;;;;5022930;28;20376;-72
2021/12/18 10:54:27;;;;;;;5.18;4.07;;;30.00;51.00;;;;;;5029603;28;20048;-71
2021/12/18 10:57:31;;;;;;;5.25;4.13;;;31.40;50.60;;;;;;5029454;28;20052;-71
2021/12/18 11:00:40;;;;;;;4.85;4.03;;;29.60;48.80;;;;;;5026989;28;20048;-72
2021/12/18 11:03:49;;;;;;;5.93;3.47;;;29.90;50.00;;;;;;5027088;28;20041;-72
2021/12/18 11:06:57;;;;;;;5.78;3.97;;;30.90;50.40;;;;;;5029168;28;20392;-72
2021/12/18 11:10:39;;;;;;;5.35;3.42;;;31.40;50.40;;;;;;5028794;28;20048;-72
2021/12/18 11:13:48;;;;;;;5.63;3.22;;;32.80;49.10;;;;;;5026108;28;20515;-72
2021/12/18 11:16:56;;;;;;;4.50;2.60;;;33.30;48.70;;;;;;5028180;28;20049;-72
2021/12/18 11:19:59;;;;;;;5.95;2.65;;;32.80;49.00;;;;;;5027419;28;20412;-71
2021/12/18 11:23:04;;;;;;;5.47;2.65;;;31.70;48.70;;;;;;5029454;28;20048;-71
2021/12/18 11:26:08;;;;;;;3.88;2.72;;;31.20;48.40;;;;;;5029178;28;20048;-72
2021/12/18 11:29:18;;;;;;;4.00;2.42;;;30.10;50.10;;;;;;5020692;28;20077;-71
2021/12/18 11:32:26;;;;;;;2.83;2.40;;;30.60;49.20;;;;;;5030506;28;20037;-71
2021/12/18 11:35:30;;;;;;;3.35;2.00;;;31.00;49.10;;;;;;5024612;28;20041;-72
2021/12/18 11:38:39;;;;;;;5.47;3.28;;;31.10;48.90;;;;;;5027906;28;20048;-71
2021/12/18 11:41:48;;;;;;;4.88;3.00;;;29.90;49.10;;;;;;5029231;28;20040;-71
2021/12/18 11:44:56;;;;;;;5.50;3.65;;;30.50;49.30;;;;;;5029703;28;20515;-71
2021/12/18 11:48:00;;;;;;;3.78;2.60;;;31.00;49.20;;;;;;5027965;28;20048;-72
2021/12/18 11:51:12;;;;;;;4.07;2.70;;;32.40;48.70;;;;;;5028851;28;20039;-72
2021/12/18 11:54:44;;;;;;;4.30;2.75;;;32.90;47.80;;;;;;5029929;28;20496;-71
2021/12/18 11:57:58;;;;;;;3.60;2.60;;;31.00;47.90;;;;;;5029011;28;20112;-71
2021/12/18 12:01:25;;;;;;;5.10;2.38;;;31.10;48.10;;;;;;5028164;28;20061;-72
2021/12/18 12:05:02;;;;;;;4.60;2.38;;;32.10;48.50;;;;;;5023895;28;20040;-72
2021/12/18 12:08:41;;;;;;;3.95;2.30;;;33.50;47.60;;;;;;5028849;28;20388;-72
2021/12/18 12:12:13;;;;;;;3.70;2.30;;;32.60;45.90;;;;;;5027479;28;20045;-72
2021/12/18 12:15:18;;;;;;;2.58;2.00;;;30.80;47.10;;;;;;5028996;28;20044;-72
2021/12/18 12:18:22;;;;;;;3.88;1.73;;;31.60;48.40;;;;;;5028184;28;20049;-72
2021/12/18 12:21:41;;;;;;;4.15;2.10;;;32.00;47.60;;;;;;5023745;28;20323;-72
2021/12/18 12:24:55;;;;;;;3.35;2.17;;;32.70;47.10;;;;;;5026677;28;20044;-72
2021/12/18 12:28:21;;;;;;;4.97;2.30;;;33.00;46.60;;;;;;5031564;28;20056;-72
2021/12/18 12:31:25;;;;;;;4.20;2.17;;;33.50;46.50;;;;;;5029098;28;20062;-72
2021/12/18 12:34:37;;;;;;;3.35;2.35;;;32.90;47.00;;;;;;5027650;28;20044;-72
2021/12/18 12:37:46;;;;;;;3.38;2.30;;;32.00;46.50;;;;;;5032368;28;20036;-72
2021/12/18 12:40:50;;;;;;;4.10;2.20;;;32.50;46.30;;;;;;5029529;28;20044;-72
2021/12/18 12:43:57;;;;;;;4.38;2.03;;;31.90;47.20;;;;;;5031116;28;20037;-72
2021/12/18 12:47:16;;;;;;;3.78;2.63;;;32.10;46.30;;;;;;5031110;28;20048;-71
2021/12/18 12:50:20;;;;;;;2.55;2.05;;;29.40;47.10;;;;;;5029724;28;20051;-72
2021/12/18 12:53:51;;;;;;;3.65;1.77;;;29.40;46.60;;;;;;5027952;28;20384;-72
2021/12/18 12:57:21;;;;;;;3.47;2.40;;;30.30;46.50;;;;;;5032327;28;20065;-71
2021/12/18 13:00:25;;;;;;;3.42;2.50;;;26.00;48.60;;;;;;5031610;28;20036;-72
2021/12/18 13:03:33;;;;;;;4.25;2.42;;;27.60;49.40;;;;;;5031571;28;20037;-71
2021/12/18 13:06:38;;;;;;;5.15;2.92;;;27.40;47.30;;;;;;5032509;28;20044;-71
2021/12/18 13:09:46;;;;;;;4.03;2.42;;;25.50;50.40;;;;;;5031574;28;20530;-71
2021/12/18 13:12:55;;;;;;;3.38;2.67;;;24.70;51.60;;;;;;5029218;28;20045;-71
2021/12/18 13:16:06;;;;;;;6.03;3.35;;;25.90;51.30;;;;;;5032948;28;20052;-72
2021/12/18 13:19:11;;;;;;;4.33;3.00;;;25.90;50.80;;;;;;5026333;28;20511;-71
2021/12/18 13:22:15;;;;;;;6.00;3.38;;;26.60;51.00;;;;;;5029546;28;20052;-71
2021/12/18 13:25:20;;;;;;;6.13;3.35;;;25.80;50.10;;;;;;5024889;28;20048;-72
2021/12/18 13:28:24;;;;;;;4.45;3.10;;;26.30;51.20;;;;;;5031519;28;20251;-71
2021/12/18 13:31:33;;;;;;;5.60;3.50;;;27.90;49.50;;;;;;5028397;28;20065;-72
2021/12/18 13:34:38;;;;;;;3.97;2.50;;;27.50;49.50;;;;;;5030841;28;20045;-70
2021/12/18 13:37:42;;;;;;;4.63;2.40;;;24.90;51.40;;;;;;5028052;28;20049;-71
2021/12/18 13:40:49;;;;;;;4.82;2.90;;;24.40;51.70;;;;;;5030061;28;20405;-71
2021/12/18 13:43:56;;;;;;;5.00;2.97;;;24.50;51.30;;;;;;5028494;28;20043;-72
2021/12/18 13:47:31;;;;;;;8.57;3.75;;;19.40;55.90;;;;;;5031408;28;20056;-73
2021/12/18 13:50:35;;;;;;;5.32;3.08;;;20.50;56.60;;;;;;5027590;28;20392;-72
2021/12/18 13:53:58;;;;;;;5.47;3.22;;;21.30;55.80;;;;;;5029033;28;20108;-71
2021/12/18 13:57:03;;;;;;;7.05;3.22;;;22.10;53.40;;;;;;5029519;28;20064;-70
2021/12/18 14:00:08;;;;;;;5.43;3.15;;;20.90;55.60;;;;;;5025621;28;20048;-72
2021/12/18 14:03:27;;;;;;;8.00;3.80;;;21.10;55.60;;;;;;5030672;28;20487;-71
2021/12/18 14:06:37;;;;;;;7.60;4.57;;;20.50;56.20;;;;;;5024523;28;20044;-71
2021/12/18 14:09:41;;;;;;;8.27;4.40;;;20.90;55.90;;;;;;5026362;28;20416;-71
2021/12/18 14:12:46;;;;;;;7.95;3.90;;;22.00;54.90;;;;;;5027886;28;20048;-71
2021/12/18 14:15:50;;;;;;;8.23;4.07;;;22.30;55.10;;;;;;5030183;28;20392;-71
2021/12/18 14:18:58;;;;;;;10.60;4.80;;;22.50;54.30;;;;;;5029805;28;20041;-71
2021/12/18 14:22:04;;;;;;;9.65;5.38;;;21.90;54.40;;;;;;5029842;28;20064;-71
2021/12/18 14:25:11;;;;;;;8.93;5.07;;;22.80;54.90;;;;;;5029939;28;20400;-71
2021/12/18 14:28:19;;;;;;;6.35;3.80;;;23.50;53.50;;;;;;5028404;28;20044;-71
2021/12/18 14:31:23;;;;;;;6.70;3.75;;;23.30;53.90;;;;;;5030813;28;20049;-71
2021/12/18 14:34:38;;;;;;;6.75;4.32;;;23.60;53.80;;;;;;5030477;28;20032;-70
2021/12/18 14:37:54;;;;;;;6.88;3.28;;;23.90;53.10;;;;;;5026833;28;20048;-71
2021/12/18 14:41:04;;;;;;;6.85;3.50;;;23.50;52.60;;;;;;5028181;28;20052;-71
2021/12/18 14:44:11;;;;;;;6.25;3.33;;;23.00;54.80;;;;;;5030534;28;20350;-71
2021/12/18 14:47:19;;;;;;;6.90;3.97;;;22.80;54.10;;;;;;5026474;28;20049;-71
2021/12/18 14:50:27;;;;;;;5.63;3.20;;;22.30;54.50;;;;;;5028288;28;20041;-71
2021/12/18 14:53:31;;;;;;;7.50;3.70;;;22.50;54.70;;;;;;5026165;28;20041;-71
2021/12/18 14:56:35;;;;;;;9.57;3.65;;;22.30;55.80;;;;;;5026418;28;20388;-71
2021/12/18 14:59:39;;;;;;;6.50;3.97;;;22.10;56.80;;;;;;5028774;28;20052;-71
2021/12/18 15:03:06;;;;;;;8.95;4.65;;;21.90;57.50;;;;;;5026872;28;20392;-71
2021/12/18 15:06:16;;;;;;;8.52;4.88;;;21.80;57.70;;;;;;5022588;28;20048;-71
2021/12/18 15:09:24;;;;;;;8.07;3.92;;;21.60;57.80;;;;;;5023754;28;20052;-71
2021/12/18 15:12:28;;;;;;;17.35;4.97;;;21.20;58.50;;;;;;5028096;28;20040;-70
2021/12/18 15:15:32;;;;;;;8.82;4.55;;;20.30;59.40;;;;;;5026192;28;20380;-71
2021/12/18 15:18:37;;;;;;;10.18;4.80;;;19.50;60.40;;;;;;5028832;28;20040;-70
2021/12/18 15:21:47;;;;;;;5.63;3.15;;;18.80;60.60;;;;;;5025709;28;20040;-73
2021/12/18 15:24:51;;;;;;;8.18;5.80;;;18.10;55.20;;;;;;5027516;28;20056;-73
2021/12/18 15:27:55;;;;;;;19.23;8.63;;;17.10;55.70;;;;;;5027653;28;20499;-73
2021/12/18 15:30:59;;;;;;;19.27;7.18;;;16.50;57.30;;;;;;5028783;28;20049;-73
2021/12/18 15:34:10;;;;;;;15.25;6.80;;;15.50;55.00;;;;;;5029150;28;20029;-72
2021/12/18 15:37:14;;;;;;;14.93;8.35;;;14.70;56.50;;;;;;5029444;28;20392;-72
2021/12/18 15:40:18;;;;;;;14.85;8.73;;;13.80;58.90;;;;;;5028302;28;20032;-72
2021/12/18 15:43:22;;;;;;;10.95;6.15;;;13.10;60.50;;;;;;5026406;28;20045;-71
2021/12/18 15:46:27;;;;;;;11.95;4.13;;;12.50;59.00;;;;;;5029455;28;20511;-71
2021/12/18 15:49:32;;;;;;;7.00;4.38;;;12.10;56.10;;;;;;5023425;28;20044;-72
2021/12/18 15:52:37;;;;;;;13.02;4.32;;;11.90;56.20;;;;;;5025563;28;20068;-72
2021/12/18 15:55:42;;;;;;;10.88;3.85;;;11.60;56.20;;;;;;5026288;28;20041;-72
2021/12/18 15:58:46;;;;;;;11.23;4.47;;;11.50;56.40;;;;;;5027323;28;20049;-72
2021/12/18 16:01:50;;;;;;;15.70;7.75;;;11.20;57.10;;;;;;5033200;28;20040;-72
2021/12/18 16:04:54;;;;;;;19.90;8.38;;;11.00;58.30;;;;;;5033679;28;20041;-72
2021/12/18 16:08:00;;;;;;;11.85;6.50;;;10.90;61.30;;;;;;5031731;28;20587;-72
2021/12/18 16:11:05;;;;;;;16.90;7.95;;;10.70;61.60;;;;;;5032150;28;20453;-72
2021/12/18 16:14:09;;;;;;;42.28;21.15;;;10.50;63.50;;;;;;5033157;28;20029;-72
2021/12/18 16:17:14;;;;;;;15.93;9.52;;;10.40;60.80;;;;;;5029314;28;20041;-72
2021/12/18 16:20:18;;;;;;;13.95;7.90;;;10.30;59.20;;;;;;5025390;28;20388;-72
2021/12/18 16:23:22;;;;;;;21.40;11.18;;;10.20;58.60;;;;;;5032465;28;20182;-72
2021/12/18 16:26:26;;;;;;;36.17;17.90;;;10.20;58.60;;;;;;5031255;28;20040;-72
2021/12/18 16:29:30;;;;;;;12.70;6.68;;;10.10;58.40;;;;;;5026034;28;20060;-72
2021/12/18 16:32:34;;;;;;;15.77;9.93;;;10.10;57.70;;;;;;5030844;28;20041;-72
2021/12/18 16:35:38;;;;;;;9.40;5.60;;;9.90;57.80;;;;;;5032922;28;20052;-72
2021/12/18 16:38:44;;;;;;;20.52;9.48;;;9.90;58.00;;;;;;5028075;28;20056;-73
2021/12/18 16:41:48;;;;;;;56.35;30.45;;;9.80;57.60;;;;;;5030721;28;20072;-72
2021/12/18 16:44:54;;;;;;;26.25;14.43;;;9.70;59.20;;;;;;5030536;28;20121;-72
2021/12/18 16:47:58;;;;;;;32.40;16.70;;;9.60;58.10;;;;;;5032102;28;20052;-72
2021/12/18 16:51:05;;;;;;;27.25;18.08;;;9.50;58.10;;;;;;5031923;28;20372;-73
2021/12/18 16:54:10;;;;;;;19.27;10.50;;;9.40;57.30;;;;;;5032634;28;20037;-73
2021/12/18 16:57:15;;;;;;;29.77;14.30;;;9.40;58.60;;;;;;5031165;28;20491;-72